Time;durP1;ratioP1;P1;durP2;ratioP2;P2;SDS_P1;SDS_P2;PMS_P1;PMS_P2;Temp;Humidity;BMP_temperature;BMP_pressure;BME280_temperature;BME280_humidity;BME280_pressure;Samples;Min_cycle;Max_cycle;Signal;HPM_P1;HPM_P2
2023/03/03 00:03:56;;;;;;;2.97;2.30;;;;;;;17.13;45.15;102245.25;20398681;28;20453;-89
2023/03/03 00:13:58;;;;;;;2.45;2.10;;;;;;;16.78;44.78;102183.75;20320092;29;20040;-89
2023/03/03 00:24:21;;;;;;;2.20;2.00;;;;;;;17.14;44.91;102248.81;20378688;29;20058;-89
2023/03/03 00:34:27;;;;;;;1.77;1.50;;;;;;;16.89;44.92;102210.88;20363937;28;20055;-90
2023/03/03 00:44:41;;;;;;;1.88;1.67;;;;;;;17.11;44.90;102249.88;20339841;29;20964;-89
2023/03/03 00:54:45;;;;;;;1.92;1.73;;;;;;;16.47;44.71;102142.72;20375771;28;20075;-90
2023/03/03 01:04:49;;;;;;;2.03;1.77;;;;;;;17.12;44.87;102239.97;20367133;28;20071;-89
2023/03/03 01:14:51;;;;;;;1.58;1.40;;;;;;;16.78;44.90;102194.53;20353660;28;20424;-88
2023/03/03 01:24:53;;;;;;;1.30;1.20;;;;;;;17.12;44.89;102232.75;20344564;28;20108;-88
2023/03/03 01:34:55;;;;;;;1.70;1.50;;;;;;;17.12;44.93;102219.31;20329371;29;20512;-88
2023/03/03 01:45:19;;;;;;;1.52;1.40;;;;;;;17.12;44.76;102213.06;20407894;28;20044;-87
2023/03/03 01:55:22;;;;;;;1.40;1.30;;;;;;;17.10;44.89;102227.50;20341182;28;20497;-88
2023/03/03 02:05:24;;;;;;;1.40;1.30;;;;;;;16.80;45.03;102163.03;20380918;28;20552;-87
2023/03/03 02:15:32;;;;;;;1.40;1.30;;;;;;;17.12;45.02;102205.84;20376841;28;20191;-89
2023/03/03 02:25:44;;;;;;;1.25;1.15;;;;;;;17.05;44.88;102191.06;20348782;29;20064;-88
2023/03/03 02:35:48;;;;;;;1.33;1.23;;;;;;;16.58;44.97;102116.00;20340201;29;20134;-88
2023/03/03 02:45:50;;;;;;;1.15;1.05;;;;;;;17.10;44.89;102207.78;20369806;28;20516;-87
2023/03/03 02:55:52;;;;;;;1.23;1.13;;;;;;;17.10;44.90;102202.41;20351409;28;20047;-87
2023/03/03 03:05:53;;;;;;;1.20;1.08;;;;;;;16.73;44.84;102149.13;20374841;28;20051;-87
2023/03/03 03:15:57;;;;;;;1.20;1.10;;;;;;;17.11;44.95;102212.19;20377961;28;20132;-87
2023/03/03 03:25:59;;;;;;;1.20;1.10;;;;;;;17.08;44.93;102202.50;20353631;28;20591;-87
2023/03/03 03:36:03;;;;;;;0.85;0.85;;;;;;;17.09;45.00;102203.34;20357064;28;20519;-87
2023/03/03 03:46:05;;;;;;;1.30;1.20;;;;;;;17.10;44.93;102205.09;20360124;29;20070;-87
2023/03/03 03:56:08;;;;;;;1.27;1.17;;;;;;;17.11;44.85;102212.19;20345982;29;20052;-87
2023/03/03 04:06:10;;;;;;;1.30;1.20;;;;;;;16.68;45.04;102144.03;20350079;28;20052;-87
2023/03/03 04:16:12;;;;;;;1.10;0.90;;;;;;;17.11;45.03;102201.44;20328975;29;20043;-89
2023/03/03 04:26:16;;;;;;;1.20;1.10;;;;;;;16.91;45.08;102167.72;20326555;29;20044;-86
2023/03/03 04:36:20;;;;;;;1.30;0.93;;;;;;;17.10;45.21;102202.41;20368892;28;20062;-87
2023/03/03 04:46:23;;;;;;;0.90;0.90;;;;;;;16.68;45.18;102127.03;20397599;28;20060;-88
2023/03/03 04:56:25;;;;;;;0.90;0.80;;;;;;;16.95;45.27;102174.63;20351514;28;20101;-87
2023/03/03 05:06:27;;;;;;;0.70;0.70;;;;;;;17.10;45.17;102203.28;20360883;28;20071;-87
2023/03/03 05:16:28;;;;;;;1.05;0.90;;;;;;;17.11;45.14;102201.44;20371059;28;20613;-88
2023/03/03 05:26:30;;;;;;;0.70;0.70;;;;;;;17.12;45.26;102203.16;20352430;28;20065;-87
2023/03/03 05:36:34;;;;;;;0.82;0.68;;;;;;;16.99;45.16;102186.09;20368259;28;20063;-87
2023/03/03 05:46:35;;;;;;;0.70;0.70;;;;;;;17.12;45.30;102208.53;20385025;28;20464;-86
2023/03/03 05:56:37;;;;;;;0.80;0.80;;;;;;;17.11;45.19;102206.81;20399700;28;20330;-87
2023/03/03 06:06:38;;;;;;;1.00;0.90;;;;;;;17.11;45.36;102220.25;20417030;28;20554;-89
2023/03/03 06:16:40;;;;;;;0.75;0.75;;;;;;;17.11;45.19;102225.66;20361427;28;20058;-88
2023/03/03 06:26:42;;;;;;;0.80;0.80;;;;;;;16.72;45.26;102168.91;20399188;28;20055;-86
2023/03/03 06:36:43;;;;;;;0.50;0.50;;;;;;;17.02;45.32;102234.31;20377731;29;20072;-89
2023/03/03 06:46:45;;;;;;;0.65;0.65;;;;;;;17.11;45.36;102244.47;20344619;28;20552;-87
2023/03/03 06:56:48;;;;;;;0.60;0.60;;;;;;;17.12;45.40;102245.38;20362020;28;20056;-88
2023/03/03 07:06:50;;;;;;;0.95;0.52;;;;;;;17.13;45.35;102257.84;20315680;29;20469;-86
2023/03/03 07:17:00;;;;;;;0.75;0.60;;;;;;;17.12;45.42;102278.50;20381560;28;20052;-86
2023/03/03 07:27:05;;;;;;;0.77;0.77;;;;;;;17.11;45.50;102282.16;20344591;28;20062;-88
2023/03/03 07:37:28;;;;;;;0.50;0.50;;;;;;;16.70;45.53;102219.22;20406597;28;20304;-86
2023/03/03 07:47:34;;;;;;;0.60;0.60;;;;;;;17.11;45.58;102292.91;20332367;28;20459;-89
2023/03/03 07:57:38;;;;;;;0.50;0.50;;;;;;;17.13;45.56;102300.91;20410668;28;20131;-87
2023/03/03 08:07:40;;;;;;;0.55;0.50;;;;;;;17.13;45.54;102299.06;20397647;28;20055;-86
2023/03/03 08:17:41;;;;;;;0.43;0.40;;;;;;;17.14;45.61;102302.63;20377222;28;20063;-87
2023/03/03 08:27:43;;;;;;;0.50;0.50;;;;;;;17.15;45.60;102305.22;20388268;28;20050;-88
2023/03/03 08:37:44;;;;;;;0.47;0.47;;;;;;;17.17;45.87;102302.44;20412052;28;21008;-88
2023/03/03 08:47:46;;;;;;;0.60;0.60;;;;;;;16.82;45.72;102239.13;20386835;28;20059;-87
2023/03/03 08:57:58;;;;;;;0.50;0.50;;;;;;;17.18;45.87;102299.63;20364688;28;20405;-87
2023/03/03 09:07:59;;;;;;;0.70;0.60;;;;;;;17.18;46.04;102310.41;20385019;28;20484;-88
2023/03/03 09:18:07;;;;;;;0.50;0.50;;;;;;;17.20;46.19;102313.84;20382790;28;20056;-88
2023/03/03 09:28:23;;;;;;;0.60;0.60;;;;;;;17.19;46.29;102304.06;20372471;28;20059;-88
2023/03/03 09:38:32;;;;;;;0.60;0.60;;;;;;;17.13;46.16;102291.00;20353120;28;20063;-86
2023/03/03 09:48:59;;;;;;;0.63;0.60;;;;;;;17.21;46.39;102298.59;20378393;28;21446;-86
2023/03/03 09:59:07;;;;;;;0.47;0.47;;;;;;;17.21;46.43;102309.34;20378623;28;20051;-90
2023/03/03 10:09:34;;;;;;;0.80;0.60;;;;;;;17.20;46.73;102307.63;20370550;28;20102;-88
2023/03/03 10:19:54;;;;;;;1.00;0.80;;;;;;;17.11;47.45;102303.69;20364820;28;20052;-89
2023/03/03 10:30:30;;;;;;;1.63;0.90;;;;;;;17.21;47.77;102320.97;20353749;28;20111;-90
2023/03/03 10:40:51;;;;;;;0.95;0.60;;;;;;;17.01;48.00;102276.47;20385231;28;20413;-90
2023/03/03 10:51:21;;;;;;;2.10;0.80;;;;;;;17.19;48.14;102317.50;20396789;28;20043;-89
2023/03/03 11:01:39;;;;;;;2.53;0.93;;;;;;;17.19;47.96;102312.13;20355708;28;20055;-93
2023/03/03 11:11:44;;;;;;;1.27;0.65;;;;;;;17.20;48.10;102313.00;20383499;29;20138;-93
2023/03/03 11:22:06;;;;;;;0.97;0.80;;;;;;;17.22;48.20;102321.84;20403887;28;20524;-94
2023/03/03 11:32:17;;;;;;;0.90;0.70;;;;;;;17.21;48.08;102315.59;20401074;28;20103;-93
2023/03/03 11:42:21;;;;;;;1.38;0.82;;;;;;;17.21;47.89;102304.81;20404665;28;20043;-92
2023/03/03 11:52:40;;;;;;;0.63;0.60;;;;;;;17.21;47.94;102293.22;20408086;28;20055;-89
2023/03/03 12:02:55;;;;;;;0.90;0.55;;;;;;;17.21;47.93;102299.44;20389375;28;20572;-91
2023/03/03 12:13:15;;;;;;;0.90;0.60;;;;;;;17.22;47.88;102286.84;20385160;28;20055;-88
2023/03/03 12:23:17;;;;;;;1.15;0.65;;;;;;;17.22;47.78;102276.94;20421617;28;20075;-90
2023/03/03 12:33:36;;;;;;;0.68;0.68;;;;;;;17.23;47.77;102259.00;20415986;28;20055;-90
2023/03/03 12:44:04;;;;;;;0.60;0.60;;;;;;;16.98;47.46;102219.34;20410531;28;20083;-92
2023/03/03 12:54:13;;;;;;;1.00;0.70;;;;;;;17.22;47.37;102258.09;20409779;28;20056;-90
2023/03/03 13:04:42;;;;;;;1.35;0.77;;;;;;;16.87;46.91;102191.28;20377264;28;20501;-88
2023/03/03 13:14:50;;;;;;;0.93;0.60;;;;;;;16.89;46.91;102185.78;20389132;28;20055;-89
2023/03/03 13:24:58;;;;;;;0.63;0.40;;;;;;;17.21;46.59;102224.09;20395155;28;20059;-88
2023/03/03 13:35:08;;;;;;;1.13;0.70;;;;;;;17.23;46.51;102224.00;20390982;28;20079;-89
2023/03/03 13:45:20;;;;;;;0.73;0.60;;;;;;;17.21;46.75;102213.31;20359066;28;20055;-87
2023/03/03 13:55:25;;;;;;;0.88;0.43;;;;;;;17.21;46.18;102207.94;20376180;28;20040;-90
2023/03/03 14:05:40;;;;;;;0.32;0.32;;;;;;;17.21;46.13;102190.94;20381982;28;20070;-89
2023/03/03 14:15:54;;;;;;;1.63;0.50;;;;;;;17.21;45.97;102185.56;20390693;28;20044;-91
2023/03/03 14:25:58;;;;;;;1.23;0.30;;;;;;;17.21;46.12;102181.03;20407825;28;20115;-89
2023/03/03 14:36:02;;;;;;;;;;;;;;;17.21;45.81;102158.66;20386800;28;20060;-90
2023/03/03 14:46:26;;;;;;;0.60;0.40;;;;;;;17.20;45.75;102152.38;20374737;28;19923;-90
2023/03/03 14:56:38;;;;;;;0.95;0.40;;;;;;;17.19;45.54;102145.28;20358279;28;20047;-90
2023/03/03 15:06:41;;;;;;;0.73;0.35;;;;;;;17.21;45.49;102142.50;20325046;28;20136;-89
2023/03/03 15:16:45;;;;;;;0.65;0.40;;;;;;;16.89;45.49;102078.19;20376458;28;20079;-90
2023/03/03 15:26:57;;;;;;;0.73;0.43;;;;;;;17.10;45.53;102108.22;20365539;28;20155;-90
2023/03/03 15:37:27;;;;;;;1.20;0.43;;;;;;;17.20;45.50;102130.00;20385448;28;20096;-91
2023/03/03 15:48:05;;;;;;;1.30;0.63;;;;;;;17.08;45.43;102126.28;20358753;28;20070;-90
2023/03/03 15:58:11;;;;;;;2.35;0.50;;;;;;;17.18;45.29;102122.03;20363750;29;20465;-90
2023/03/03 16:08:23;;;;;;;1.77;0.75;;;;;;;17.18;45.48;102115.78;20373052;29;20567;-90
2023/03/03 16:18:37;;;;;;;2.58;0.98;;;;;;;17.17;45.36;102127.53;20380355;28;20052;-91
2023/03/03 16:29:13;;;;;;;2.28;0.95;;;;;;;17.15;45.37;102126.75;20337822;28;20063;-91
2023/03/03 16:39:28;;;;;;;2.55;1.20;;;;;;;17.15;45.40;102130.31;20340669;29;20104;-91
2023/03/03 16:49:43;;;;;;;2.65;1.17;;;;;;;17.15;45.54;102151.84;20350076;29;20157;-90
2023/03/03 16:59:59;;;;;;;3.38;1.38;;;;;;;17.13;45.43;102153.75;20378205;28;20527;-89
2023/03/03 17:10:20;;;;;;;4.47;1.45;;;;;;;17.13;45.36;102161.84;20392582;28;20500;-90
2023/03/03 17:20:48;;;;;;;3.70;1.52;;;;;;;17.11;45.54;102161.06;20346212;28;20055;-91
2023/03/03 17:30:58;;;;;;;3.75;1.40;;;;;;;17.10;45.42;102157.53;20401722;28;20055;-93
2023/03/03 17:41:15;;;;;;;3.25;1.63;;;;;;;17.02;45.33;102149.09;20339614;29;20055;-94
2023/03/03 17:51:32;;;;;;;4.10;1.48;;;;;;;17.09;45.48;102155.81;20313730;28;20159;-93
2023/03/03 18:01:44;;;;;;;3.40;1.60;;;;;;;17.13;45.62;102167.22;20357595;28;20087;-92
2023/03/03 18:12:08;;;;;;;4.22;1.67;;;;;;;17.14;45.73;102174.31;20382373;28;20154;-92
2023/03/03 18:22:19;;;;;;;3.40;1.38;;;;;;;17.12;45.85;102168.19;20371586;28;20062;-93
2023/03/03 18:32:22;;;;;;;3.38;1.65;;;;;;;17.11;45.79;102174.53;20388336;28;20047;-90
2023/03/03 18:42:39;;;;;;;5.10;1.67;;;;;;;17.12;45.94;102168.19;20430373;23;20035;-94
2023/03/03 18:53:12;;;;;;;3.90;1.80;;;;;;;17.10;45.85;102168.28;21389645;23;20072;-92
2023/03/03 19:03:24;;;;;;;5.15;1.63;;;;;;;17.10;45.93;102175.50;20383675;29;20054;-93
2023/03/03 19:13:31;;;;;;;4.38;1.48;;;;;;;17.09;45.83;102184.53;20380203;28;20058;-91
2023/03/03 19:23:53;;;;;;;5.45;1.70;;;;;;;17.03;45.75;102171.47;20347923;28;20385;-93
2023/03/03 19:34:05;;;;;;;4.72;1.50;;;;;;;17.08;45.68;102174.72;20360951;29;20050;-90
2023/03/03 19:44:20;;;;;;;5.05;1.63;;;;;;;17.08;45.85;102166.66;20365294;28;20050;-81
2023/03/03 19:54:51;;;;;;;6.00;1.65;;;;;;;16.99;46.27;102165.41;20370411;29;20052;-95
2023/03/03 20:05:03;;;;;;;5.72;1.83;;;;;;;16.90;46.39;102153.41;20440917;23;20071;-92
2023/03/03 20:15:14;;;;;;;4.82;1.60;;;;;;;17.09;46.38;102192.59;20487547;28;20058;-94
2023/03/03 20:25:42;;;;;;;4.13;1.73;;;;;;;17.07;46.42;102200.78;20425598;28;20519;-91
2023/03/03 20:35:46;;;;;;;5.47;2.22;;;;;;;17.07;46.44;102205.28;20433419;28;20067;-89
2023/03/03 20:46:28;;;;;;;5.00;1.80;;;;;;;17.06;46.50;102215.19;20481563;28;20047;-94
2023/03/03 20:56:37;;;;;;;4.13;1.50;;;;;;;17.06;46.41;102219.69;20492676;28;20070;-95
2023/03/03 21:06:39;;;;;;;5.75;1.65;;;;;;;16.75;46.31;102173.19;20497354;28;20050;-95
2023/03/03 21:16:41;;;;;;;5.72;1.90;;;;;;;16.92;46.55;102196.34;20491006;28;20511;-95
2023/03/03 21:26:53;;;;;;;5.47;2.33;;;;;;;17.05;46.36;102217.97;20490738;28;20134;-95
2023/03/03 21:36:56;;;;;;;4.10;1.35;;;;;;;17.05;46.52;102215.28;20480268;28;20335;-93
2023/03/03 21:46:58;;;;;;;4.32;1.40;;;;;;;16.90;46.44;102209.03;20497476;28;20051;-93
2023/03/03 21:57:00;;;;;;;5.25;1.52;;;;;;;17.04;46.38;102216.25;20503510;28;20183;-94
2023/03/03 22:07:01;;;;;;;2.78;1.45;;;;;;;16.49;46.39;102124.66;20478047;28;20142;-94
2023/03/03 22:17:03;;;;;;;4.68;1.40;;;;;;;17.04;46.40;102211.75;20488347;28;20054;-94
2023/03/03 22:27:06;;;;;;;3.65;1.35;;;;;;;17.04;46.34;102213.56;20497126;28;20094;-95
2023/03/03 22:37:07;;;;;;;4.95;1.90;;;;;;;16.90;46.31;102188.38;20512679;28;20044;-94
2023/03/03 22:47:09;;;;;;;4.72;1.80;;;;;;;16.59;46.33;102128.47;20463110;28;20047;-96
2023/03/03 22:57:13;;;;;;;3.33;1.30;;;;;;;16.92;46.27;102191.84;20495227;28;20114;-95
2023/03/03 23:07:14;;;;;;;4.10;1.20;;;;;;;17.04;46.20;102194.72;20487379;28;20078;-95
2023/03/03 23:17:16;;;;;;;4.95;1.70;;;;;;;17.02;46.35;102194.84;20486755;28;20043;-93
2023/03/03 23:27:17;;;;;;;3.83;1.23;;;;;;;17.02;46.27;102186.78;20499912;28;20051;-96
2023/03/03 23:37:20;;;;;;;5.15;1.00;;;;;;;17.02;46.24;102188.59;20496246;28;20427;-95
2023/03/03 23:47:21;;;;;;;4.93;1.13;;;;;;;16.67;46.34;102122.63;20518678;28;20074;-95
2023/03/03 23:57:23;;;;;;;3.15;1.05;;;;;;;17.02;46.22;102194.84;20400253;28;20060;-95
